sensor_id;sensor_type;location;lat;lon;timestamp;pressure;altitude;pressure_sealevel;temperature;humidity
62201;BME280;48197;42.732;27.192;2022-10-04T05:33:36;99835.25;;;11.09;100.00
62201;BME280;48197;42.732;27.192;2022-10-04T05:41:07;99843.72;;;11.43;97.00
62201;BME280;48197;42.732;27.192;2022-10-04T05:46:12;99856.88;;;11.29;92.98
62201;BME280;48197;42.732;27.192;2022-10-04T05:48:38;99849.78;;;11.24;92.05
62201;BME280;48197;42.732;27.192;2022-10-04T05:51:24;99850.97;;;11.27;90.24
62201;BME280;48197;42.732;27.192;2022-10-04T05:53:51;99846.41;;;11.54;88.45
62201;BME280;48197;42.732;27.192;2022-10-04T06:03:53;99843.69;;;13.22;74.03
62201;BME280;48197;42.732;27.192;2022-10-04T06:06:39;99841.97;;;13.05;73.26
62201;BME280;48197;42.732;27.192;2022-10-04T06:09:12;99849.69;;;12.94;73.33
62201;BME280;48197;42.732;27.192;2022-10-04T06:12:41;99852.19;;;12.84;72.11
62201;BME280;48197;42.732;27.192;2022-10-04T06:22:19;99862.63;;;13.04;71.40
62201;BME280;48197;42.732;27.192;2022-10-04T06:25:04;99865.25;;;13.15;69.52
62201;BME280;48197;42.732;27.192;2022-10-04T06:30:08;99864.16;;;13.36;69.46
62201;BME280;48197;42.732;27.192;2022-10-04T06:50:47;99882.84;;;15.42;61.15
62201;BME280;48197;42.732;27.192;2022-10-04T07:00:50;99891.34;;;17.05;56.69
62201;BME280;48197;42.732;27.192;2022-10-04T07:03:32;99884.00;;;16.69;57.03
62201;BME280;48197;42.732;27.192;2022-10-04T07:06:06;99892.78;;;16.67;55.21
62201;BME280;48197;42.732;27.192;2022-10-04T07:11:13;99890.81;;;17.35;53.28
62201;BME280;48197;42.732;27.192;2022-10-04T07:18:54;99886.78;;;19.51;52.60
62201;BME280;48197;42.732;27.192;2022-10-04T07:24:18;99886.97;;;19.26;52.31
62201;BME280;48197;42.732;27.192;2022-10-04T07:26:47;99898.56;;;19.06;50.16
62201;BME280;48197;42.732;27.192;2022-10-04T07:29:27;99898.00;;;18.89;53.68
62201;BME280;48197;42.732;27.192;2022-10-04T07:34:30;99902.19;;;19.15;53.41
62201;BME280;48197;42.732;27.192;2022-10-04T07:36:58;99899.75;;;19.67;56.00
62201;BME280;48197;42.732;27.192;2022-10-04T07:39:32;99904.97;;;19.87;51.24
62201;BME280;48197;42.732;27.192;2022-10-04T07:42:14;99909.31;;;19.79;50.53
62201;BME280;48197;42.732;27.192;2022-10-04T07:44:46;99913.84;;;19.95;50.10
62201;BME280;48197;42.732;27.192;2022-10-04T07:47:24;99909.06;;;20.14;50.28
62201;BME280;48197;42.732;27.192;2022-10-04T07:49:55;99909.50;;;19.94;50.30
62201;BME280;48197;42.732;27.192;2022-10-04T07:52:30;99921.97;;;20.02;50.36
62201;BME280;48197;42.732;27.192;2022-10-04T07:57:37;99914.47;;;19.90;48.71
62201;BME280;48197;42.732;27.192;2022-10-04T08:00:43;99913.19;;;19.41;48.10
62201;BME280;48197;42.732;27.192;2022-10-04T08:03:13;99902.34;;;19.12;51.14
62201;BME280;48197;42.732;27.192;2022-10-04T08:05:51;99910.06;;;19.70;55.37
62201;BME280;48197;42.732;27.192;2022-10-04T08:08:35;99908.59;;;20.06;46.69
62201;BME280;48197;42.732;27.192;2022-10-04T08:13:37;99918.59;;;20.16;47.91
62201;BME280;48197;42.732;27.192;2022-10-04T08:16:14;99917.00;;;20.15;48.55
62201;BME280;48197;42.732;27.192;2022-10-04T08:21:16;99918.44;;;20.38;51.38
62201;BME280;48197;42.732;27.192;2022-10-04T08:23:50;99927.00;;;20.53;47.98
62201;BME280;48197;42.732;27.192;2022-10-04T08:26:28;99921.06;;;20.14;48.82
62201;BME280;48197;42.732;27.192;2022-10-04T08:40:07;99941.22;;;19.72;54.29
62201;BME280;48197;42.732;27.192;2022-10-04T08:42:53;99948.66;;;19.04;48.08
62201;BME280;48197;42.732;27.192;2022-10-04T09:01:04;99948.00;;;21.32;52.13
62201;BME280;48197;42.732;27.192;2022-10-04T09:06:39;99962.47;;;18.98;46.17
62201;BME280;48197;42.732;27.192;2022-10-04T09:12:15;99968.91;;;18.16;53.68
62201;BME280;48197;42.732;27.192;2022-10-04T09:20:38;99969.19;;;18.79;47.91
62201;BME280;48197;42.732;27.192;2022-10-04T09:22:53;99975.13;;;18.68;52.18
62201;BME280;48197;42.732;27.192;2022-10-04T09:25:33;99981.78;;;19.58;47.11
62201;BME280;48197;42.732;27.192;2022-10-04T09:30:45;99962.59;;;20.84;44.61
62201;BME280;48197;42.732;27.192;2022-10-04T09:33:17;99971.19;;;20.62;45.88
62201;BME280;48197;42.732;27.192;2022-10-04T09:35:57;99978.78;;;20.52;43.59
62201;BME280;48197;42.732;27.192;2022-10-04T10:35:55;99988.91;;;21.14;41.97
62201;BME280;48197;42.732;27.192;2022-10-04T10:38:41;99984.22;;;22.15;39.34
62201;BME280;48197;42.732;27.192;2022-10-04T11:05:16;99990.97;;;18.14;44.78
62201;BME280;48197;42.732;27.192;2022-10-04T11:07:51;99985.19;;;19.53;43.65
62201;BME280;48197;42.732;27.192;2022-10-04T11:16:04;99991.13;;;21.71;39.33
62201;BME280;48197;42.732;27.192;2022-10-04T11:33:55;100005.72;;;18.14;43.67
62201;BME280;48197;42.732;27.192;2022-10-04T11:36:32;100005.31;;;17.90;42.64
62201;BME280;48197;42.732;27.192;2022-10-04T11:41:52;100014.78;;;17.67;43.97
62201;BME280;48197;42.732;27.192;2022-10-04T11:44:24;100010.00;;;17.93;44.33
62201;BME280;48197;42.732;27.192;2022-10-04T11:49:42;100003.47;;;18.22;44.08
62201;BME280;48197;42.732;27.192;2022-10-04T11:58:04;99997.31;;;21.85;38.69
62201;BME280;48197;42.732;27.192;2022-10-04T12:05:51;99992.59;;;23.26;35.70
62201;BME280;48197;42.732;27.192;2022-10-04T12:08:41;99990.50;;;23.86;34.50
62201;BME280;48197;42.732;27.192;2022-10-04T12:33:13;100002.56;;;23.12;33.63
62201;BME280;48197;42.732;27.192;2022-10-04T12:35:21;100000.94;;;23.50;33.57
62201;BME280;48197;42.732;27.192;2022-10-04T12:40:42;100006.34;;;23.98;31.63
62201;BME280;48197;42.732;27.192;2022-10-04T12:43:18;100010.44;;;23.68;31.92
62201;BME280;48197;42.732;27.192;2022-10-04T12:50:50;100028.44;;;22.14;33.27
62201;BME280;48197;42.732;27.192;2022-10-04T13:04:53;100027.91;;;20.29;37.95
62201;BME280;48197;42.732;27.192;2022-10-04T13:10:03;100013.56;;;20.46;37.12
62201;BME280;48197;42.732;27.192;2022-10-04T13:17:58;100027.78;;;21.16;35.87
62201;BME280;48197;42.732;27.192;2022-10-04T13:26:08;100013.72;;;22.19;34.03
62201;BME280;48197;42.732;27.192;2022-10-04T13:28:16;100012.50;;;21.78;33.88
62201;BME280;48197;42.732;27.192;2022-10-04T13:30:49;100017.06;;;20.59;35.02
62201;BME280;48197;42.732;27.192;2022-10-04T13:33:24;100022.09;;;19.52;36.65
62201;BME280;48197;42.732;27.192;2022-10-04T13:41:19;100039.69;;;17.74;40.43
62201;BME280;48197;42.732;27.192;2022-10-04T13:43:54;100043.72;;;17.48;40.83
62201;BME280;48197;42.732;27.192;2022-10-04T13:49:03;100052.09;;;17.61;40.44
62201;BME280;48197;42.732;27.192;2022-10-04T13:51:45;100044.59;;;17.58;40.08
62201;BME280;48197;42.732;27.192;2022-10-04T13:54:32;100053.97;;;17.51;40.22
62201;BME280;48197;42.732;27.192;2022-10-04T13:57:21;100056.88;;;17.47;40.77
62201;BME280;48197;42.732;27.192;2022-10-04T13:59:51;100058.78;;;17.50;40.98
62201;BME280;48197;42.732;27.192;2022-10-04T14:21:43;100074.75;;;18.05;41.09
62201;BME280;48197;42.732;27.192;2022-10-04T14:34:49;100080.47;;;18.27;41.92
62201;BME280;48197;42.732;27.192;2022-10-04T14:45:37;100106.97;;;17.84;43.57
62201;BME280;48197;42.732;27.192;2022-10-04T14:48:16;100108.53;;;17.85;44.08
62201;BME280;48197;42.732;27.192;2022-10-04T15:01:17;100116.19;;;17.39;45.13
62201;BME280;48197;42.732;27.192;2022-10-04T15:03:47;100118.25;;;17.22;45.56
62201;BME280;48197;42.732;27.192;2022-10-04T15:11:38;100130.00;;;17.00;46.74
62201;BME280;48197;42.732;27.192;2022-10-04T15:16:57;100131.97;;;17.16;46.10
62201;BME280;48197;42.732;27.192;2022-10-04T15:19:46;100142.72;;;17.18;46.36
62201;BME280;48197;42.732;27.192;2022-10-04T15:22:23;100136.88;;;17.12;46.70
62201;BME280;48197;42.732;27.192;2022-10-04T15:24:52;100140.03;;;16.98;46.63
62201;BME280;48197;42.732;27.192;2022-10-04T15:37:53;100155.47;;;16.00;50.27
62201;BME280;48197;42.732;27.192;2022-10-04T15:43:04;100160.09;;;15.67;51.35
62201;BME280;48197;42.732;27.192;2022-10-04T15:45:50;100160.72;;;15.55;51.65
62201;BME280;48197;42.732;27.192;2022-10-04T15:51:02;100178.28;;;15.31;52.87
62201;BME280;48197;42.732;27.192;2022-10-04T15:56:32;100176.97;;;15.16;53.48
62201;BME280;48197;42.732;27.192;2022-10-04T16:07:23;100190.97;;;14.62;56.17
62201;BME280;48197;42.732;27.192;2022-10-04T16:12:26;100204.06;;;14.34;57.25
62201;BME280;48197;42.732;27.192;2022-10-04T16:17:43;100206.06;;;14.03;58.64
62201;BME280;48197;42.732;27.192;2022-10-04T16:25:51;100219.31;;;13.54;60.76
62201;BME280;48197;42.732;27.192;2022-10-04T16:36:10;100244.44;;;13.39;61.10
62201;BME280;48197;42.732;27.192;2022-10-04T16:39:11;100248.44;;;13.38;60.97
62201;BME280;48197;42.732;27.192;2022-10-04T16:41:57;100248.06;;;13.36;60.83
62201;BME280;48197;42.732;27.192;2022-10-04T16:44:29;100251.63;;;13.37;60.56
62201;BME280;48197;42.732;27.192;2022-10-04T16:47:01;100253.16;;;13.41;60.33
62201;BME280;48197;42.732;27.192;2022-10-04T16:49:47;100257.44;;;13.50;60.16
62201;BME280;48197;42.732;27.192;2022-10-04T16:55:00;100260.75;;;13.75;58.21
62201;BME280;48197;42.732;27.192;2022-10-04T16:57:28;100263.06;;;13.80;57.82
62201;BME280;48197;42.732;27.192;2022-10-04T16:59:56;100274.25;;;13.77;58.06
62201;BME280;48197;42.732;27.192;2022-10-04T17:02:32;100275.88;;;13.74;57.45
62201;BME280;48197;42.732;27.192;2022-10-04T17:05:05;100275.81;;;13.78;57.35
62201;BME280;48197;42.732;27.192;2022-10-04T17:15:48;100284.91;;;13.78;55.96
62201;BME280;48197;42.732;27.192;2022-10-04T17:18:34;100285.38;;;13.73;56.28
62201;BME280;48197;42.732;27.192;2022-10-04T17:21:08;100289.03;;;13.66;56.67
62201;BME280;48197;42.732;27.192;2022-10-04T17:23:42;100303.00;;;13.59;56.56
62201;BME280;48197;42.732;27.192;2022-10-04T17:36:32;100317.94;;;12.54;60.54
62201;BME280;48197;42.732;27.192;2022-10-04T17:39:01;100306.91;;;12.39;60.87
62201;BME280;48197;42.732;27.192;2022-10-04T17:41:46;100317.66;;;12.34;61.03
62201;BME280;48197;42.732;27.192;2022-10-04T17:46:50;100335.53;;;12.11;61.24
62201;BME280;48197;42.732;27.192;2022-10-04T17:49:25;100346.63;;;11.97;62.18
62201;BME280;48197;42.732;27.192;2022-10-04T17:52:20;100336.75;;;11.74;63.03
62201;BME280;48197;42.732;27.192;2022-10-04T17:55:11;100341.94;;;11.54;63.81
62201;BME280;48197;42.732;27.192;2022-10-04T17:57:49;100340.31;;;11.50;63.65
62201;BME280;48197;42.732;27.192;2022-10-04T18:00:20;100337.19;;;11.44;63.99
62201;BME280;48197;42.732;27.192;2022-10-04T18:03:03;100343.47;;;11.41;63.97
62201;BME280;48197;42.732;27.192;2022-10-04T18:10:56;100356.13;;;11.17;65.36
62201;BME280;48197;42.732;27.192;2022-10-04T18:18:50;100365.19;;;11.07;65.77
62201;BME280;48197;42.732;27.192;2022-10-04T18:21:21;100366.38;;;11.06;65.87
62201;BME280;48197;42.732;27.192;2022-10-04T18:24:30;100369.56;;;11.08;66.01
62201;BME280;48197;42.732;27.192;2022-10-04T18:26:38;100381.75;;;11.03;66.22
62201;BME280;48197;42.732;27.192;2022-10-04T18:29:33;100379.38;;;10.94;66.72
62201;BME280;48197;42.732;27.192;2022-10-04T18:32:00;100379.75;;;10.86;67.28
62201;BME280;48197;42.732;27.192;2022-10-04T18:34:40;100384.44;;;10.67;67.94
62201;BME280;48197;42.732;27.192;2022-10-04T18:37:19;100385.19;;;10.57;68.40
62201;BME280;48197;42.732;27.192;2022-10-04T18:39:47;100398.66;;;10.73;68.78
62201;BME280;48197;42.732;27.192;2022-10-04T18:44:58;100390.97;;;12.04;64.52
62201;BME280;48197;42.732;27.192;2022-10-04T18:47:35;100395.63;;;12.46;62.88
62201;BME280;48197;42.732;27.192;2022-10-04T18:52:50;100401.06;;;12.72;62.53
62201;BME280;48197;42.732;27.192;2022-10-04T18:58:04;100407.53;;;12.33;63.62
62201;BME280;48197;42.732;27.192;2022-10-04T19:01:04;100410.72;;;12.17;64.26
62201;BME280;48197;42.732;27.192;2022-10-04T19:04:20;100417.88;;;11.96;65.03
62201;BME280;48197;42.732;27.192;2022-10-04T19:06:50;100413.88;;;11.79;65.19
62201;BME280;48197;42.732;27.192;2022-10-04T19:09:30;100412.69;;;11.62;66.23
62201;BME280;48197;42.732;27.192;2022-10-04T19:12:04;100420.59;;;11.53;66.34
62201;BME280;48197;42.732;27.192;2022-10-04T19:19:46;100432.41;;;11.18;67.58
62201;BME280;48197;42.732;27.192;2022-10-04T19:22:59;100431.59;;;11.10;68.06
62201;BME280;48197;42.732;27.192;2022-10-04T19:28:09;100436.75;;;11.15;68.32
62201;BME280;48197;42.732;27.192;2022-10-04T19:40:37;100440.63;;;10.93;69.25
62201;BME280;48197;42.732;27.192;2022-10-04T19:43:18;100446.16;;;10.96;69.04
62201;BME280;48197;42.732;27.192;2022-10-04T19:45:59;100445.00;;;11.04;68.90
62201;BME280;48197;42.732;27.192;2022-10-04T19:48:31;100450.56;;;11.08;69.08
62201;BME280;48197;42.732;27.192;2022-10-04T19:51:35;100447.00;;;11.08;69.13
62201;BME280;48197;42.732;27.192;2022-10-04T19:53:57;100452.56;;;11.18;68.75
62201;BME280;48197;42.732;27.192;2022-10-04T19:56:30;100448.25;;;11.28;68.14
62201;BME280;48197;42.732;27.192;2022-10-04T19:59:03;100448.66;;;11.34;67.39
62201;BME280;48197;42.732;27.192;2022-10-04T20:01:33;100449.47;;;11.41;67.37
62201;BME280;48197;42.732;27.192;2022-10-04T20:04:01;100447.88;;;11.44;67.32
62201;BME280;48197;42.732;27.192;2022-10-04T20:06:54;100457.75;;;11.38;67.16
62201;BME280;48197;42.732;27.192;2022-10-04T20:12:26;100465.25;;;11.27;68.28
62201;BME280;48197;42.732;27.192;2022-10-04T20:15:12;100464.44;;;11.22;68.59
62201;BME280;48197;42.732;27.192;2022-10-04T20:17:42;100464.03;;;11.20;69.03
62201;BME280;48197;42.732;27.192;2022-10-04T20:20:12;100466.00;;;11.16;69.17
62201;BME280;48197;42.732;27.192;2022-10-04T20:23:00;100467.59;;;11.14;69.75
62201;BME280;48197;42.732;27.192;2022-10-04T20:28:35;100475.47;;;11.15;69.88
62201;BME280;48197;42.732;27.192;2022-10-04T20:31:00;100476.66;;;11.11;69.90
62201;BME280;48197;42.732;27.192;2022-10-04T20:36:05;100470.28;;;11.03;70.61
62201;BME280;48197;42.732;27.192;2022-10-04T20:38:52;100478.97;;;10.98;70.85
62201;BME280;48197;42.732;27.192;2022-10-04T20:43:55;100479.75;;;10.98;70.95
62201;BME280;48197;42.732;27.192;2022-10-04T20:46:23;100482.13;;;11.00;70.88
62201;BME280;48197;42.732;27.192;2022-10-04T20:48:51;100490.44;;;11.00;70.69
62201;BME280;48197;42.732;27.192;2022-10-04T20:51:19;100494.81;;;11.08;70.36
62201;BME280;48197;42.732;27.192;2022-10-04T20:53:47;100493.63;;;11.09;70.31
62201;BME280;48197;42.732;27.192;2022-10-04T20:56:20;100498.34;;;11.05;70.34
62201;BME280;48197;42.732;27.192;2022-10-04T20:58:52;100507.81;;;11.00;70.78
62201;BME280;48197;42.732;27.192;2022-10-04T21:04:22;100503.44;;;10.89;70.83
62201;BME280;48197;42.732;27.192;2022-10-04T21:07:10;100510.13;;;10.84;71.39
62201;BME280;48197;42.732;27.192;2022-10-04T21:09:38;100508.16;;;10.85;71.23
62201;BME280;48197;42.732;27.192;2022-10-04T21:12:06;100506.59;;;10.91;71.49
62201;BME280;48197;42.732;27.192;2022-10-04T21:17:38;100516.94;;;11.04;70.76
62201;BME280;48197;42.732;27.192;2022-10-04T21:20:08;100519.66;;;10.97;70.99
62201;BME280;48197;42.732;27.192;2022-10-04T21:22:40;100508.56;;;10.87;71.07
62201;BME280;48197;42.732;27.192;2022-10-04T21:25:26;100506.94;;;10.78;71.72
62201;BME280;48197;42.732;27.192;2022-10-04T21:27:58;100500.97;;;10.73;71.90
62201;BME280;48197;42.732;27.192;2022-10-04T21:30:40;100506.50;;;10.69;72.03
62201;BME280;48197;42.732;27.192;2022-10-04T21:33:07;100511.63;;;10.67;72.12
62201;BME280;48197;42.732;27.192;2022-10-04T21:35:34;100514.34;;;10.63;72.13
62201;BME280;48197;42.732;27.192;2022-10-04T21:38:01;100514.72;;;10.62;72.28
62201;BME280;48197;42.732;27.192;2022-10-04T21:40:28;100515.91;;;10.65;72.38
62201;BME280;48197;42.732;27.192;2022-10-04T21:42:54;100515.53;;;10.62;72.39
62201;BME280;48197;42.732;27.192;2022-10-04T21:45:21;100515.41;;;10.45;72.90
62201;BME280;48197;42.732;27.192;2022-10-04T21:47:48;100509.66;;;10.19;73.65
62201;BME280;48197;42.732;27.192;2022-10-04T21:50:15;100507.91;;;10.00;74.32
62201;BME280;48197;42.732;27.192;2022-10-04T21:52:42;100507.50;;;9.95;74.91
62201;BME280;48197;42.732;27.192;2022-10-04T21:55:08;100513.53;;;10.08;74.74
62201;BME280;48197;42.732;27.192;2022-10-04T21:57:35;100513.59;;;10.18;74.71
62201;BME280;48197;42.732;27.192;2022-10-04T22:00:02;100516.00;;;10.23;74.68
62201;BME280;48197;42.732;27.192;2022-10-04T22:02:30;100521.56;;;10.27;74.41
62201;BME280;48197;42.732;27.192;2022-10-04T22:04:58;100522.31;;;10.20;74.74
62201;BME280;48197;42.732;27.192;2022-10-04T22:07:25;100517.94;;;10.19;75.15
62201;BME280;48197;42.732;27.192;2022-10-04T22:09:52;100518.50;;;10.36;74.90
62201;BME280;48197;42.732;27.192;2022-10-04T22:12:20;100526.53;;;10.55;74.09
62201;BME280;48197;42.732;27.192;2022-10-04T22:14:47;100532.50;;;10.65;73.57
62201;BME280;48197;42.732;27.192;2022-10-04T22:17:14;100528.88;;;10.50;73.70
62201;BME280;48197;42.732;27.192;2022-10-04T22:19:41;100521.94;;;10.22;74.21
62201;BME280;48197;42.732;27.192;2022-10-04T22:22:14;100524.22;;;10.13;74.86
62201;BME280;48197;42.732;27.192;2022-10-04T22:24:41;100530.81;;;10.01;75.11
62201;BME280;48197;42.732;27.192;2022-10-04T22:27:15;100530.84;;;10.05;74.86
62201;BME280;48197;42.732;27.192;2022-10-04T22:29:42;100534.00;;;10.03;74.44
62201;BME280;48197;42.732;27.192;2022-10-04T22:32:27;100535.94;;;9.99;74.26
62201;BME280;48197;42.732;27.192;2022-10-04T22:34:58;100537.94;;;10.02;74.27
62201;BME280;48197;42.732;27.192;2022-10-04T22:37:27;100537.09;;;9.98;74.61
62201;BME280;48197;42.732;27.192;2022-10-04T22:39:56;100537.41;;;9.89;74.89
62201;BME280;48197;42.732;27.192;2022-10-04T22:42:23;100538.44;;;9.74;75.35
62201;BME280;48197;42.732;27.192;2022-10-04T22:44:53;100534.41;;;9.64;76.10
62201;BME280;48197;42.732;27.192;2022-10-04T22:47:20;100532.47;;;9.68;76.82
62201;BME280;48197;42.732;27.192;2022-10-04T22:49:49;100533.38;;;9.79;76.49
62201;BME280;48197;42.732;27.192;2022-10-04T22:52:18;100532.69;;;9.90;76.52
62201;BME280;48197;42.732;27.192;2022-10-04T22:54:50;100533.50;;;9.94;76.45
62201;BME280;48197;42.732;27.192;2022-10-04T22:57:18;100526.00;;;9.91;76.64
62201;BME280;48197;42.732;27.192;2022-10-04T22:59:50;100541.78;;;9.90;76.80
62201;BME280;48197;42.732;27.192;2022-10-04T23:02:18;100531.78;;;9.78;77.00
62201;BME280;48197;42.732;27.192;2022-10-04T23:04:50;100539.84;;;9.57;77.85
62201;BME280;48197;42.732;27.192;2022-10-04T23:07:19;100541.59;;;9.38;78.47
62201;BME280;48197;42.732;27.192;2022-10-04T23:09:45;100550.94;;;9.27;78.64
62201;BME280;48197;42.732;27.192;2022-10-04T23:12:13;100553.19;;;9.17;79.04
62201;BME280;48197;42.732;27.192;2022-10-04T23:14:40;100551.94;;;9.11;79.28
62201;BME280;48197;42.732;27.192;2022-10-04T23:19:53;100550.00;;;9.15;79.65
62201;BME280;48197;42.732;27.192;2022-10-04T23:22:21;100552.66;;;9.08;79.89
62201;BME280;48197;42.732;27.192;2022-10-04T23:24:52;100546.84;;;9.13;80.49
62201;BME280;48197;42.732;27.192;2022-10-04T23:27:19;100551.31;;;9.25;80.18
62201;BME280;48197;42.732;27.192;2022-10-04T23:29:46;100553.78;;;9.34;80.03
62201;BME280;48197;42.732;27.192;2022-10-04T23:32:14;100554.69;;;9.45;79.58
62201;BME280;48197;42.732;27.192;2022-10-04T23:34:45;100554.66;;;9.42;80.12
62201;BME280;48197;42.732;27.192;2022-10-04T23:37:32;100560.78;;;9.61;80.08
62201;BME280;48197;42.732;27.192;2022-10-04T23:39:59;100558.97;;;9.76;79.48
62201;BME280;48197;42.732;27.192;2022-10-04T23:42:27;100552.84;;;9.94;79.04
62201;BME280;48197;42.732;27.192;2022-10-04T23:44:59;100566.75;;;10.05;78.66
62201;BME280;48197;42.732;27.192;2022-10-04T23:47:32;100560.13;;;10.13;78.26
62201;BME280;48197;42.732;27.192;2022-10-04T23:50:00;100558.97;;;10.17;78.17
62201;BME280;48197;42.732;27.192;2022-10-04T23:52:32;100562.50;;;10.14;78.02
62201;BME280;48197;42.732;27.192;2022-10-04T23:55:00;100552.19;;;10.11;77.97
62201;BME280;48197;42.732;27.192;2022-10-04T23:57:28;100556.53;;;10.09;77.98
62201;BME280;48197;42.732;27.192;2022-10-04T23:59:57;100554.84;;;9.97;78.51
